createdAt,value
2023-02-25T00:01:38.346Z,86.73
2023-02-25T00:04:04.797Z,87.14
2023-02-25T00:06:31.282Z,87.83
2023-02-25T00:08:57.720Z,87.15
2023-02-25T00:11:25.981Z,86.53
2023-02-25T00:13:52.558Z,85.71
2023-02-25T00:16:21.462Z,85.69
2023-02-25T00:18:48.836Z,84.95
2023-02-25T00:21:16.749Z,85.31
2023-02-25T00:23:45.568Z,85.78
2023-02-25T00:26:12.623Z,85.42
2023-02-25T00:28:40.350Z,85.27
2023-02-25T00:31:09.078Z,84.60
2023-02-25T00:33:35.727Z,84.23
2023-02-25T00:36:06.154Z,84.29
2023-02-25T00:38:32.628Z,84.26
2023-02-25T00:40:59.063Z,84.74
2023-02-25T00:43:25.509Z,85.53
2023-02-25T00:45:51.965Z,86.43
2023-02-25T00:48:18.422Z,86.43
2023-02-25T00:50:44.841Z,86.18
2023-02-25T00:53:11.324Z,86.47
2023-02-25T00:55:37.812Z,86.71
2023-02-25T00:58:04.368Z,86.15
2023-02-25T01:00:35.944Z,86.00
2023-02-25T01:03:07.467Z,86.49
2023-02-25T01:05:33.969Z,86.70
2023-02-25T01:08:00.754Z,85.58
2023-02-25T01:10:28.522Z,85.30
2023-02-25T01:12:55.060Z,85.21
2023-02-25T01:15:21.509Z,85.44
2023-02-25T01:17:47.966Z,84.52
2023-02-25T01:20:19.760Z,85.57
2023-02-25T01:22:46.265Z,84.48
2023-02-25T01:25:13.968Z,86.06
2023-02-25T01:27:40.503Z,86.00
2023-02-25T01:30:08.285Z,84.93
2023-02-25T01:32:35.312Z,84.77
2023-02-25T01:35:02.363Z,84.23
2023-02-25T01:37:29.635Z,84.44
2023-02-25T01:39:56.515Z,85.42
2023-02-25T01:42:23.785Z,85.52
2023-02-25T01:45:18.300Z,85.51
2023-02-25T01:47:48.448Z,84.65
2023-02-25T01:50:20.126Z,83.24
2023-02-25T01:52:47.152Z,82.25
2023-02-25T01:55:13.890Z,80.85
2023-02-25T01:57:40.600Z,79.33
2023-02-25T02:00:17.525Z,79.35
2023-02-25T02:02:47.151Z,81.00
2023-02-25T02:05:15.155Z,80.51
2023-02-25T02:07:42.342Z,82.66
2023-02-25T02:10:09.694Z,83.95
2023-02-25T02:12:40.209Z,84.28
2023-02-25T02:15:10.903Z,86.91
2023-02-25T02:17:58.777Z,85.42
2023-02-25T02:20:51.411Z,85.00
2023-02-25T02:23:30.667Z,83.87
2023-02-25T02:26:03.238Z,83.40
2023-02-25T02:28:42.792Z,85.11
2023-02-25T02:31:31.424Z,86.03
2023-02-25T02:34:06.832Z,85.24
2023-02-25T02:36:52.068Z,85.35
2023-02-25T02:40:17.381Z,83.56
2023-02-25T02:42:52.413Z,81.25
2023-02-25T02:45:40.714Z,81.26
2023-02-25T02:48:17.171Z,82.10
2023-02-25T02:50:55.564Z,82.62
2023-02-25T02:53:31.900Z,83.98
2023-02-25T02:56:03.297Z,84.66
2023-02-25T02:58:35.246Z,86.16
2023-02-25T03:01:16.240Z,88.08
2023-02-25T03:03:49.974Z,84.88
2023-02-25T03:06:24.614Z,81.73
2023-02-25T03:08:56.749Z,80.69
2023-02-25T03:11:23.645Z,77.74
2023-02-25T03:13:51.941Z,77.47
2023-02-25T03:16:37.452Z,76.43
2023-02-25T03:19:21.354Z,76.10
2023-02-25T03:21:56.381Z,74.16
2023-02-25T03:24:28.914Z,75.59
2023-02-25T03:26:55.528Z,75.54
2023-02-25T03:29:25.332Z,76.20
2023-02-25T03:31:59.304Z,75.25
2023-02-25T03:34:35.965Z,75.23
2023-02-25T03:37:15.457Z,75.00
2023-02-25T03:39:46.863Z,75.23
2023-02-25T03:42:19.808Z,73.78
2023-02-25T03:44:50.802Z,73.84
2023-02-25T03:47:19.454Z,74.85
2023-02-25T03:50:10.088Z,73.09
2023-02-25T03:52:40.503Z,73.37
2023-02-25T03:55:17.198Z,73.09
2023-02-25T03:57:47.888Z,74.01
2023-02-25T04:00:22.891Z,74.01
2023-02-25T04:02:50.401Z,71.13
2023-02-25T04:05:18.883Z,71.52
2023-02-25T04:07:45.717Z,71.31
2023-02-25T04:10:16.854Z,70.36
2023-02-25T04:12:44.707Z,69.99
2023-02-25T04:15:14.390Z,69.49
2023-02-25T04:17:41.185Z,70.19
2023-02-25T04:20:08.614Z,69.97
2023-02-25T04:22:35.133Z,69.91
2023-02-25T04:25:01.634Z,69.37
2023-02-25T04:27:28.101Z,69.28
2023-02-25T04:29:54.599Z,69.91
2023-02-25T04:32:21.283Z,72.09
2023-02-25T04:34:47.862Z,71.18
2023-02-25T04:37:14.372Z,71.45
2023-02-25T04:39:41.466Z,70.78
2023-02-25T04:42:08.027Z,70.53
2023-02-25T04:44:34.562Z,69.83
2023-02-25T04:47:01.161Z,70.74
2023-02-25T04:49:27.665Z,71.71
2023-02-25T04:51:54.510Z,71.93
2023-02-25T04:54:21.595Z,70.84
2023-02-25T04:56:48.757Z,70.85
2023-02-25T04:59:17.376Z,70.84
2023-02-25T05:01:44.062Z,70.67
2023-02-25T05:04:10.809Z,70.94
2023-02-25T05:06:37.369Z,70.98
2023-02-25T05:09:04.048Z,70.07
2023-02-25T05:11:30.741Z,70.51
2023-02-25T05:13:57.363Z,69.10
2023-02-25T05:16:25.265Z,68.92
2023-02-25T05:18:52.829Z,69.10
2023-02-25T05:21:21.895Z,69.33
2023-02-25T05:23:50.321Z,70.00
2023-02-25T05:26:18.551Z,68.77
2023-02-25T05:28:45.070Z,68.64
2023-02-25T05:31:12.813Z,68.40
2023-02-25T05:33:40.796Z,68.79
2023-02-25T05:36:08.839Z,68.78
2023-02-25T05:38:36.919Z,69.00
2023-02-25T05:41:05.946Z,68.54
2023-02-25T05:43:32.833Z,68.54
2023-02-25T05:46:01.466Z,68.15
2023-02-25T05:48:27.956Z,69.20
2023-02-25T05:51:04.140Z,68.08
2023-02-25T05:53:30.925Z,68.36
2023-02-25T05:55:57.445Z,67.71
2023-02-25T05:58:24.006Z,69.80
2023-02-25T06:00:50.685Z,68.25
2023-02-25T06:03:17.583Z,67.97
2023-02-25T06:05:45.683Z,67.84
2023-02-25T06:08:14.173Z,67.46
2023-02-25T06:10:40.726Z,67.44
2023-02-25T06:13:09.967Z,67.68
2023-02-25T06:15:41.229Z,68.84
2023-02-25T06:18:08.661Z,66.63
2023-02-25T06:20:35.704Z,66.76
2023-02-25T06:23:03.340Z,67.27
2023-02-25T06:25:30.095Z,68.56
2023-02-25T06:28:00.870Z,67.61
2023-02-25T06:30:29.217Z,68.47
2023-02-25T06:32:56.323Z,68.06
2023-02-25T06:35:23.518Z,67.72
2023-02-25T06:37:57.472Z,68.12
2023-02-25T06:40:24.054Z,68.65
2023-02-25T06:42:50.525Z,68.69
2023-02-25T06:45:17.187Z,68.96
2023-02-25T06:47:43.903Z,69.04
2023-02-25T06:50:12.141Z,70.23
2023-02-25T06:52:38.583Z,68.19
2023-02-25T06:55:06.794Z,68.84
2023-02-25T06:57:34.101Z,68.93
2023-02-25T07:00:00.605Z,69.40
2023-02-25T07:02:27.139Z,68.51
2023-02-25T07:04:54.738Z,68.82
2023-02-25T07:07:22.279Z,68.83
2023-02-25T07:09:48.926Z,68.28
2023-02-25T07:12:15.399Z,68.01
2023-02-25T07:14:41.923Z,67.44
2023-02-25T07:17:08.472Z,67.66
2023-02-25T07:19:34.965Z,67.56
2023-02-25T07:22:01.517Z,67.72
2023-02-25T07:24:28.045Z,67.45
2023-02-25T07:26:55.626Z,66.93
2023-02-25T07:29:22.448Z,65.94
2023-02-25T07:31:49.355Z,62.17
2023-02-25T07:34:16.013Z,55.52
2023-02-25T07:36:42.471Z,51.02
2023-02-25T07:39:12.014Z,49.02
2023-02-25T07:41:39.259Z,49.32
2023-02-25T07:44:06.889Z,47.83
2023-02-25T07:46:33.645Z,47.33
2023-02-25T07:49:01.202Z,47.02
2023-02-25T07:51:28.501Z,46.90
2023-02-25T07:53:57.511Z,48.65
2023-02-25T07:56:26.198Z,51.15
2023-02-25T07:58:52.792Z,51.77
2023-02-25T08:01:26.156Z,52.29
2023-02-25T08:03:55.725Z,51.17
2023-02-25T08:06:23.229Z,50.59
2023-02-25T08:08:52.109Z,50.41
2023-02-25T08:11:19.925Z,50.37
2023-02-25T08:13:47.021Z,52.21
2023-02-25T08:16:16.162Z,54.19
2023-02-25T08:18:43.007Z,55.60
2023-02-25T08:21:15.184Z,57.01
2023-02-25T08:23:41.635Z,57.15
2023-02-25T08:26:09.813Z,58.83
2023-02-25T08:28:37.392Z,59.02
2023-02-25T08:31:08.115Z,58.42
2023-02-25T08:33:34.743Z,60.04
2023-02-25T08:36:13.509Z,60.15
2023-02-25T08:38:40.362Z,60.59
2023-02-25T08:41:08.131Z,61.62
2023-02-25T08:43:35.830Z,62.20
2023-02-25T08:46:03.027Z,62.11
2023-02-25T08:48:33.078Z,61.98
2023-02-25T08:51:10.565Z,62.68
2023-02-25T08:53:38.867Z,63.09
2023-02-25T08:56:07.053Z,63.34
2023-02-25T08:58:33.737Z,64.36
2023-02-25T09:01:00.355Z,64.49
2023-02-25T09:03:27.474Z,64.21
2023-02-25T09:05:55.941Z,65.36
2023-02-25T09:08:22.502Z,65.13
2023-02-25T09:10:50.886Z,65.03
2023-02-25T09:13:17.761Z,63.90
2023-02-25T09:15:44.368Z,62.72
2023-02-25T09:18:14.183Z,62.76
2023-02-25T09:20:40.663Z,63.51
2023-02-25T09:23:07.150Z,63.49
2023-02-25T09:25:33.633Z,63.95
2023-02-25T09:28:00.114Z,65.79
2023-02-25T09:30:26.636Z,65.74
2023-02-25T09:32:53.293Z,70.02
2023-02-25T09:35:19.901Z,71.34
2023-02-25T09:37:46.363Z,72.82
2023-02-25T09:40:17.905Z,74.79
2023-02-25T09:42:56.331Z,76.13
2023-02-25T09:45:25.020Z,74.91
2023-02-25T09:47:59.975Z,74.28
2023-02-25T09:50:41.917Z,74.38
2023-02-25T09:53:24.414Z,72.13
2023-02-25T09:55:53.146Z,72.19
2023-02-25T09:58:36.129Z,71.95
2023-02-25T10:01:11.791Z,70.75
2023-02-25T10:04:00.267Z,70.29
2023-02-25T10:06:35.593Z,68.68
2023-02-25T10:09:20.368Z,68.23
2023-02-25T10:11:55.827Z,67.81
2023-02-25T10:14:41.987Z,67.44
2023-02-25T10:17:24.836Z,65.65
2023-02-25T10:20:18.230Z,64.59
2023-02-25T10:22:58.958Z,63.95
2023-02-25T10:25:30.609Z,63.76
2023-02-25T10:28:04.826Z,63.49
2023-02-25T10:30:38.271Z,63.49
2023-02-25T10:33:15.186Z,64.26
2023-02-25T10:35:42.955Z,64.39
2023-02-25T10:38:12.813Z,62.77
2023-02-25T10:40:41.002Z,59.73
2023-02-25T10:43:20.501Z,58.57
2023-02-25T10:45:51.469Z,57.11
2023-02-25T10:48:25.343Z,56.24
2023-02-25T10:51:05.755Z,55.55
2023-02-25T10:53:34.033Z,57.05
2023-02-25T10:56:01.797Z,54.34
2023-02-25T10:58:28.370Z,56.13
2023-02-25T11:00:59.057Z,56.21
2023-02-25T11:03:29.196Z,57.05
2023-02-25T11:06:10.648Z,56.06
2023-02-25T11:08:37.221Z,56.13
2023-02-25T11:11:17.571Z,56.83
2023-02-25T11:13:44.186Z,56.41
2023-02-25T11:16:13.690Z,56.71
2023-02-25T11:18:41.721Z,57.52
2023-02-25T11:21:13.020Z,57.27
2023-02-25T11:23:46.895Z,57.19
2023-02-25T11:26:17.168Z,57.21
2023-02-25T11:28:49.315Z,58.44
2023-02-25T11:31:20.462Z,58.38
2023-02-25T11:33:59.257Z,58.53
2023-02-25T11:36:35.497Z,58.46
2023-02-25T11:39:32.522Z,57.87
2023-02-25T11:42:21.684Z,57.63
2023-02-25T11:44:48.208Z,54.07
2023-02-25T11:47:26.426Z,50.46
2023-02-25T11:50:07.883Z,50.21
2023-02-25T11:52:43.493Z,46.16
2023-02-25T11:55:31.182Z,47.15
2023-02-25T11:58:10.775Z,44.87
2023-02-25T12:00:47.008Z,46.79
2023-02-25T12:03:34.871Z,43.65
2023-02-25T12:06:22.789Z,48.49
2023-02-25T12:08:58.574Z,50.74
2023-02-25T12:12:06.552Z,50.88
2023-02-25T12:14:52.616Z,43.52
2023-02-25T12:18:01.957Z,39.25
2023-02-25T12:20:47.686Z,37.03
2023-02-25T12:23:20.203Z,35.37
2023-02-25T12:26:06.559Z,35.13
2023-02-25T12:28:57.910Z,32.43
2023-02-25T12:31:39.633Z,31.10
2023-02-25T12:34:06.082Z,33.49
2023-02-25T12:36:38.508Z,35.07
2023-02-25T12:39:26.271Z,39.26
2023-02-25T12:42:01.755Z,37.65
2023-02-25T12:44:34.286Z,38.71
2023-02-25T12:47:19.593Z,36.62
2023-02-25T12:50:11.159Z,35.00
2023-02-25T12:52:43.698Z,37.04
2023-02-25T12:55:19.366Z,35.11
2023-02-25T12:57:57.244Z,37.38
2023-02-25T13:01:02.237Z,36.39
2023-02-25T13:04:03.251Z,37.38
2023-02-25T13:06:48.068Z,37.39
2023-02-25T13:09:56.489Z,37.82
2023-02-25T13:12:41.975Z,42.25
2023-02-25T13:15:20.424Z,43.11
2023-02-25T13:17:53.341Z,44.20
2023-02-25T13:20:35.549Z,45.04
2023-02-25T13:23:20.603Z,46.21
2023-02-25T13:26:06.013Z,47.48
2023-02-25T13:28:57.756Z,50.30
2023-02-25T13:31:54.080Z,52.16
2023-02-25T13:34:49.861Z,52.69
2023-02-25T13:37:25.800Z,52.40
2023-02-25T13:40:05.315Z,51.32
2023-02-25T13:42:53.984Z,51.02
2023-02-25T13:45:46.718Z,49.91
2023-02-25T13:48:50.639Z,51.67
2023-02-25T13:51:30.251Z,52.59
2023-02-25T13:54:14.571Z,51.00
2023-02-25T13:57:10.367Z,52.98
2023-02-25T13:59:59.242Z,54.15
2023-02-25T14:03:09.669Z,55.43
2023-02-25T14:06:03.292Z,57.15
2023-02-25T14:08:51.691Z,59.26
2023-02-25T14:11:47.528Z,61.79
2023-02-25T14:14:32.504Z,65.90
2023-02-25T14:17:30.134Z,66.18
2023-02-25T14:20:11.762Z,65.71
2023-02-25T14:22:50.985Z,65.71
2023-02-25T14:25:56.005Z,65.26
2023-02-25T14:28:40.995Z,63.66
2023-02-25T14:31:20.550Z,64.30
2023-02-25T14:33:49.769Z,63.04
2023-02-25T14:36:44.348Z,63.40
2023-02-25T14:39:44.355Z,63.89
2023-02-25T14:42:19.917Z,63.65
2023-02-25T14:45:05.397Z,64.10
2023-02-25T14:47:40.030Z,65.28
2023-02-25T14:50:15.811Z,65.01
2023-02-25T14:53:38.777Z,65.03
2023-02-25T14:56:47.393Z,64.37
2023-02-25T14:59:37.376Z,64.61
2023-02-25T15:02:37.720Z,64.96
2023-02-25T15:05:44.410Z,67.14
2023-02-25T15:08:41.983Z,73.62
2023-02-25T15:11:46.200Z,73.74
2023-02-25T15:14:31.144Z,76.06
2023-02-25T15:17:35.638Z,71.59
2023-02-25T15:20:11.186Z,69.07
2023-02-25T15:22:39.026Z,69.68
2023-02-25T15:25:45.601Z,66.44
2023-02-25T15:28:30.206Z,65.81
2023-02-25T15:31:02.713Z,66.13
2023-02-25T15:33:41.149Z,66.04
2023-02-25T15:36:13.843Z,65.26
2023-02-25T15:38:48.130Z,65.89
2023-02-25T15:41:26.737Z,65.87
2023-02-25T15:44:00.355Z,66.05
2023-02-25T15:46:35.978Z,66.52
2023-02-25T15:49:02.765Z,67.33
2023-02-25T15:51:41.592Z,67.88
2023-02-25T15:54:10.034Z,68.09
2023-02-25T15:56:48.909Z,69.42
2023-02-25T15:59:47.367Z,71.20
2023-02-25T16:02:29.124Z,72.39
2023-02-25T16:04:59.931Z,72.56
2023-02-25T16:07:34.689Z,73.23
2023-02-25T16:10:07.543Z,73.88
2023-02-25T16:12:34.678Z,74.06
2023-02-25T16:15:02.901Z,75.09
2023-02-25T16:17:34.325Z,75.39
2023-02-25T16:20:30.204Z,76.45
2023-02-25T16:22:59.505Z,77.64
2023-02-25T16:25:42.286Z,77.67
2023-02-25T16:28:54.547Z,77.56
2023-02-25T16:31:29.966Z,77.89
2023-02-25T16:34:22.548Z,78.96
2023-02-25T16:37:16.950Z,79.38
2023-02-25T16:39:43.839Z,79.39
2023-02-25T16:42:16.165Z,79.03
2023-02-25T16:44:47.302Z,79.25
2023-02-25T16:47:26.536Z,79.67
2023-02-25T16:49:58.269Z,80.32
2023-02-25T16:52:27.899Z,81.23
2023-02-25T16:54:59.420Z,81.88
2023-02-25T16:57:26.357Z,82.55
2023-02-25T17:00:12.439Z,81.37
2023-02-25T17:02:50.587Z,80.82
2023-02-25T17:05:27.712Z,80.91
2023-02-25T17:07:56.606Z,80.19
2023-02-25T17:10:30.394Z,80.27
2023-02-25T17:12:59.004Z,81.45
2023-02-25T17:15:34.988Z,81.13
2023-02-25T17:18:17.002Z,80.53
2023-02-25T17:20:43.530Z,79.62
2023-02-25T17:23:13.863Z,77.78
2023-02-25T17:25:42.975Z,77.69
2023-02-25T17:28:20.708Z,78.84
2023-02-25T17:30:47.419Z,79.12
2023-02-25T17:33:31.876Z,78.52
2023-02-25T17:36:24.453Z,78.57
2023-02-25T17:38:56.348Z,76.06
2023-02-25T17:41:24.309Z,73.57
2023-02-25T17:43:51.470Z,71.37
2023-02-25T17:46:31.217Z,70.68
2023-02-25T17:49:16.874Z,70.12
2023-02-25T17:51:43.760Z,69.91
2023-02-25T17:54:18.035Z,69.78
2023-02-25T17:56:44.957Z,69.97
2023-02-25T17:59:14.172Z,70.07
2023-02-25T18:02:01.148Z,70.27
2023-02-25T18:04:41.501Z,70.66
2023-02-25T18:07:28.277Z,70.58
2023-02-25T18:09:55.980Z,70.73
2023-02-25T18:12:29.019Z,71.11
2023-02-25T18:14:58.515Z,71.54
2023-02-25T18:17:34.723Z,71.59
2023-02-25T18:20:05.871Z,71.19
2023-02-25T18:22:41.132Z,71.68
2023-02-25T18:25:29.084Z,71.34
2023-02-25T18:27:55.693Z,71.41
2023-02-25T18:30:24.642Z,71.45
2023-02-25T18:32:51.744Z,72.90
2023-02-25T18:35:18.764Z,72.17
2023-02-25T18:37:47.421Z,71.86
2023-02-25T18:40:23.660Z,71.53
2023-02-25T18:42:50.196Z,72.19
2023-02-25T18:45:20.940Z,71.96
2023-02-25T18:47:47.972Z,72.74
2023-02-25T18:50:14.857Z,72.81
2023-02-25T18:52:41.569Z,72.31
2023-02-25T18:55:16.643Z,71.66
2023-02-25T18:57:43.337Z,72.20
2023-02-25T19:00:11.146Z,71.25
2023-02-25T19:02:56.640Z,71.96
2023-02-25T19:05:24.905Z,71.82
2023-02-25T19:07:52.186Z,72.78
2023-02-25T19:10:22.552Z,70.89
2023-02-25T19:12:50.767Z,70.08
2023-02-25T19:15:21.661Z,69.90
2023-02-25T19:17:49.252Z,69.22
2023-02-25T19:20:18.370Z,68.83
2023-02-25T19:22:47.364Z,68.09
2023-02-25T19:25:27.496Z,68.01
2023-02-25T19:27:55.940Z,68.23
2023-02-25T19:30:26.004Z,67.90
2023-02-25T19:32:52.572Z,67.22
2023-02-25T19:35:19.101Z,66.93
2023-02-25T19:37:45.623Z,66.31
2023-02-25T19:40:14.494Z,65.74
2023-02-25T19:42:42.830Z,65.96
2023-02-25T19:45:12.961Z,65.22
2023-02-25T19:47:39.585Z,65.75
2023-02-25T19:50:07.158Z,64.25
2023-02-25T19:52:33.896Z,64.12
2023-02-25T19:55:01.225Z,63.23
2023-02-25T19:57:28.158Z,63.91
2023-02-25T19:59:54.704Z,63.91
2023-02-25T20:02:21.141Z,62.50
2023-02-25T20:04:47.732Z,63.39
2023-02-25T20:07:15.471Z,62.93
2023-02-25T20:09:42.379Z,63.05
2023-02-25T20:12:09.355Z,63.09
2023-02-25T20:14:35.942Z,63.13
2023-02-25T20:17:02.485Z,62.90
2023-02-25T20:19:32.480Z,62.41
2023-02-25T20:22:01.324Z,62.11
2023-02-25T20:24:28.721Z,62.41
2023-02-25T20:26:55.918Z,61.96
2023-02-25T20:29:22.729Z,62.35
2023-02-25T20:31:49.291Z,61.52
2023-02-25T20:34:19.672Z,62.08
2023-02-25T20:37:04.316Z,62.76
2023-02-25T20:39:45.442Z,62.53
2023-02-25T20:42:15.299Z,61.63
2023-02-25T20:44:41.933Z,61.03
2023-02-25T20:47:16.374Z,60.08
2023-02-25T20:49:42.928Z,60.49
2023-02-25T20:52:11.918Z,59.45
2023-02-25T20:54:38.378Z,59.77
2023-02-25T20:57:04.899Z,60.10
2023-02-25T20:59:31.426Z,59.74
2023-02-25T21:02:00.136Z,59.45
2023-02-25T21:04:26.617Z,60.00
2023-02-25T21:06:53.324Z,61.26
2023-02-25T21:09:19.858Z,60.39
2023-02-25T21:11:46.331Z,61.59
2023-02-25T21:14:12.793Z,62.35
2023-02-25T21:16:39.659Z,61.10
2023-02-25T21:19:07.868Z,60.93
2023-02-25T21:21:38.291Z,60.55
2023-02-25T21:24:05.953Z,60.53
2023-02-25T21:26:32.723Z,60.70
2023-02-25T21:28:59.808Z,60.73
2023-02-25T21:31:26.628Z,60.60
2023-02-25T21:33:53.323Z,60.76
2023-02-25T21:36:19.774Z,60.34
2023-02-25T21:38:46.703Z,60.50
2023-02-25T21:41:14.919Z,60.43
2023-02-25T21:43:42.471Z,61.77
2023-02-25T21:46:12.651Z,63.32
2023-02-25T21:48:40.762Z,61.47
2023-02-25T21:51:12.874Z,63.67
2023-02-25T21:53:39.336Z,64.04
2023-02-25T21:56:15.728Z,63.99
2023-02-25T21:58:42.746Z,63.97
2023-02-25T22:01:17.244Z,63.67
2023-02-25T22:03:44.296Z,63.40
2023-02-25T22:06:11.389Z,62.94
2023-02-25T22:08:40.208Z,62.83
2023-02-25T22:11:21.211Z,63.56
2023-02-25T22:13:47.892Z,64.43
2023-02-25T22:16:15.331Z,65.13
2023-02-25T22:18:41.909Z,65.55
2023-02-25T22:21:12.800Z,69.32
2023-02-25T22:23:41.168Z,69.17
2023-02-25T22:26:13.530Z,71.64
2023-02-25T22:28:41.173Z,71.94
2023-02-25T22:31:16.816Z,75.61
2023-02-25T22:33:44.425Z,74.88
2023-02-25T22:36:12.313Z,76.01
2023-02-25T22:38:40.808Z,72.65
2023-02-25T22:41:12.655Z,70.17
2023-02-25T22:43:39.170Z,70.10
2023-02-25T22:46:11.471Z,69.65
2023-02-25T22:48:39.826Z,73.21
2023-02-25T22:51:09.279Z,73.04
2023-02-25T22:53:37.201Z,74.62
2023-02-25T22:56:06.460Z,75.07
2023-02-25T22:58:33.240Z,77.01
2023-02-25T23:00:59.785Z,77.85
2023-02-25T23:03:26.284Z,77.87
2023-02-25T23:05:54.665Z,79.34
2023-02-25T23:08:22.644Z,78.70
2023-02-25T23:10:49.355Z,79.26
2023-02-25T23:13:15.929Z,80.64
2023-02-25T23:15:42.693Z,81.16
2023-02-25T23:18:09.730Z,81.85
2023-02-25T23:20:38.130Z,77.99
2023-02-25T23:23:06.650Z,78.21
2023-02-25T23:25:35.573Z,79.34
2023-02-25T23:28:02.943Z,80.37
2023-02-25T23:30:29.601Z,82.48
2023-02-25T23:32:57.417Z,84.61
2023-02-25T23:35:24.516Z,85.06
2023-02-25T23:37:51.160Z,85.80
2023-02-25T23:40:17.840Z,85.73
2023-02-25T23:42:44.360Z,86.17
2023-02-25T23:45:14.007Z,84.95
2023-02-25T23:47:42.854Z,86.42
2023-02-25T23:50:17.849Z,84.64
2023-02-25T23:52:45.955Z,83.63
2023-02-25T23:55:14.079Z,86.52
2023-02-25T23:57:40.632Z,85.83
